createdAt,value
2023-04-30T00:00:50.494Z,1.10
2023-04-30T00:03:19.190Z,0.80
2023-04-30T00:05:47.904Z,0.90
2023-04-30T00:08:16.346Z,1.00
2023-04-30T00:10:46.599Z,0.90
2023-04-30T00:13:15.326Z,0.70
2023-04-30T00:15:43.772Z,0.77
2023-04-30T00:18:12.510Z,0.90
2023-04-30T00:20:41.148Z,0.73
2023-04-30T00:23:09.610Z,0.93
2023-04-30T00:25:38.174Z,1.13
2023-04-30T00:28:08.280Z,0.90
2023-04-30T00:30:36.756Z,1.00
2023-04-30T00:33:05.739Z,1.00
2023-04-30T00:35:34.357Z,0.80
2023-04-30T00:38:02.814Z,1.00
2023-04-30T00:40:31.606Z,0.77
2023-04-30T00:43:00.220Z,1.17
2023-04-30T00:45:30.088Z,0.97
2023-04-30T00:47:58.745Z,0.90
2023-04-30T00:50:27.515Z,0.90
2023-04-30T00:52:55.967Z,0.80
2023-04-30T00:55:24.588Z,1.03
2023-04-30T00:57:53.351Z,0.90
2023-04-30T01:00:21.866Z,1.03
2023-04-30T01:02:52.081Z,0.83
2023-04-30T01:05:20.713Z,0.90
2023-04-30T01:07:49.396Z,1.13
2023-04-30T01:10:18.265Z,1.00
2023-04-30T01:12:49.834Z,0.80
2023-04-30T01:15:23.220Z,0.90
2023-04-30T01:17:57.108Z,1.20
2023-04-30T01:20:26.407Z,1.00
2023-04-30T01:22:57.667Z,0.97
2023-04-30T01:25:38.026Z,1.10
2023-04-30T01:28:10.322Z,0.90
2023-04-30T01:30:40.757Z,1.03
2023-04-30T01:33:09.505Z,0.77
2023-04-30T01:35:45.790Z,0.90
2023-04-30T01:38:19.820Z,0.97
2023-04-30T01:40:55.004Z,1.30
2023-04-30T01:43:32.248Z,1.20
2023-04-30T01:46:06.545Z,0.97
2023-04-30T01:48:39.284Z,1.00
2023-04-30T01:51:11.073Z,1.00
2023-04-30T01:53:42.223Z,0.90
2023-04-30T01:56:13.366Z,1.30
2023-04-30T01:58:43.797Z,1.20
2023-04-30T02:01:27.427Z,0.80
2023-04-30T02:03:56.018Z,0.87
2023-04-30T02:06:28.623Z,1.30
2023-04-30T02:09:02.455Z,0.97
2023-04-30T02:11:31.265Z,0.90
2023-04-30T02:14:01.176Z,1.03
2023-04-30T02:16:29.745Z,0.80
2023-04-30T02:18:58.388Z,1.33
2023-04-30T02:21:27.364Z,1.20
2023-04-30T02:23:56.403Z,0.90
2023-04-30T02:26:24.867Z,1.17
2023-04-30T02:28:53.473Z,1.00
2023-04-30T02:31:23.384Z,1.00
2023-04-30T02:33:51.875Z,1.10
2023-04-30T02:36:20.434Z,1.17
2023-04-30T02:38:49.061Z,1.20
2023-04-30T02:41:17.519Z,1.20
2023-04-30T02:43:46.079Z,1.40
2023-04-30T02:46:14.714Z,1.10
2023-04-30T02:48:44.575Z,1.30
2023-04-30T02:51:13.429Z,1.10
2023-04-30T02:53:42.225Z,1.03
2023-04-30T02:56:10.691Z,1.03
2023-04-30T02:58:39.247Z,1.00
2023-04-30T03:01:07.875Z,1.23
2023-04-30T03:03:36.396Z,1.23
2023-04-30T03:06:06.720Z,1.20
2023-04-30T03:08:35.415Z,1.20
2023-04-30T03:11:03.885Z,1.20
2023-04-30T03:13:32.449Z,1.30
2023-04-30T03:16:01.215Z,1.10
2023-04-30T03:18:30.403Z,1.13
2023-04-30T03:20:59.172Z,1.00
2023-04-30T03:23:30.012Z,1.03
2023-04-30T03:25:58.576Z,1.20
2023-04-30T03:28:27.032Z,1.40
2023-04-30T03:30:55.607Z,1.10
2023-04-30T03:33:24.308Z,1.00
2023-04-30T03:35:53.517Z,1.20
2023-04-30T03:38:22.333Z,1.00
2023-04-30T03:40:52.268Z,1.20
2023-04-30T03:43:20.832Z,1.07
2023-04-30T03:45:49.769Z,0.90
2023-04-30T03:48:18.442Z,0.80
2023-04-30T03:50:47.071Z,1.10
2023-04-30T03:53:15.578Z,0.90
2023-04-30T03:55:44.190Z,0.90
2023-04-30T03:58:14.044Z,1.10
2023-04-30T04:00:42.986Z,1.10
2023-04-30T04:03:11.565Z,1.00
2023-04-30T04:05:40.099Z,0.83
2023-04-30T04:08:08.760Z,0.83
2023-04-30T04:10:37.372Z,0.90
2023-04-30T04:13:06.500Z,0.90
2023-04-30T04:15:36.528Z,0.73
2023-04-30T04:18:07.134Z,0.87
2023-04-30T04:20:35.634Z,0.80
2023-04-30T04:23:04.355Z,0.80
2023-04-30T04:25:33.554Z,0.97
2023-04-30T04:28:02.236Z,0.80
2023-04-30T04:30:30.864Z,0.93
2023-04-30T04:33:00.854Z,0.63
2023-04-30T04:35:29.487Z,0.80
2023-04-30T04:37:58.053Z,0.90
2023-04-30T04:40:26.516Z,1.03
2023-04-30T04:42:55.665Z,0.80
2023-04-30T04:45:25.864Z,0.70
2023-04-30T04:47:54.322Z,0.90
2023-04-30T04:50:24.305Z,0.70
2023-04-30T04:52:52.878Z,1.00
2023-04-30T04:55:21.337Z,0.73
2023-04-30T04:57:49.913Z,0.90
2023-04-30T05:00:19.289Z,0.60
2023-04-30T05:02:47.818Z,0.80
2023-04-30T05:05:16.483Z,0.63
2023-04-30T05:07:46.463Z,0.77
2023-04-30T05:10:15.008Z,0.60
2023-04-30T05:12:43.578Z,0.80
2023-04-30T05:15:12.614Z,0.70
2023-04-30T05:17:41.128Z,0.60
2023-04-30T05:20:10.331Z,0.63
2023-04-30T05:22:39.131Z,0.70
2023-04-30T05:25:09.599Z,0.60
2023-04-30T05:27:38.200Z,0.60
2023-04-30T05:30:07.232Z,0.63
2023-04-30T05:32:36.324Z,0.53
2023-04-30T05:35:05.176Z,0.70
2023-04-30T05:37:33.758Z,0.60
2023-04-30T05:40:02.241Z,0.60
2023-04-30T05:42:32.247Z,0.60
2023-04-30T05:45:00.939Z,0.60
2023-04-30T05:47:29.419Z,0.40
2023-04-30T05:49:57.995Z,0.80
2023-04-30T05:52:28.731Z,0.70
2023-04-30T05:54:57.184Z,0.60
2023-04-30T05:57:25.826Z,0.50
2023-04-30T05:59:56.096Z,0.50
2023-04-30T06:02:24.883Z,0.67
2023-04-30T06:04:53.689Z,0.70
2023-04-30T06:07:22.330Z,0.40
2023-04-30T06:09:50.791Z,0.50
2023-04-30T06:12:19.411Z,0.70
2023-04-30T06:14:48.032Z,0.50
2023-04-30T06:17:17.868Z,0.50
2023-04-30T06:19:46.472Z,0.50
2023-04-30T06:22:15.182Z,0.60
2023-04-30T06:24:43.656Z,0.57
2023-04-30T06:27:12.595Z,0.47
2023-04-30T06:29:41.183Z,0.50
2023-04-30T06:32:09.672Z,0.40
2023-04-30T06:34:40.637Z,0.50
2023-04-30T06:37:09.204Z,0.40
2023-04-30T06:39:37.636Z,0.40
2023-04-30T06:42:06.195Z,0.37
2023-04-30T06:44:34.763Z,0.50
2023-04-30T06:47:03.315Z,0.53
2023-04-30T06:49:31.877Z,0.50
2023-04-30T06:52:01.860Z,0.60
2023-04-30T06:54:30.578Z,0.30
2023-04-30T06:56:59.005Z,0.40
2023-04-30T06:59:27.536Z,0.50
2023-04-30T07:01:56.225Z,0.37
2023-04-30T07:04:25.504Z,0.30
2023-04-30T07:06:54.057Z,0.30
2023-04-30T07:09:24.089Z,0.40
2023-04-30T07:11:53.874Z,0.40
2023-04-30T07:14:22.715Z,0.40
2023-04-30T07:16:51.836Z,0.30
2023-04-30T07:19:20.428Z,0.47
2023-04-30T07:21:48.959Z,0.50
2023-04-30T07:24:17.406Z,0.40
2023-04-30T07:26:47.371Z,0.40
2023-04-30T07:29:16.007Z,0.50
2023-04-30T07:31:44.484Z,0.40
2023-04-30T07:34:13.425Z,0.30
2023-04-30T07:36:42.019Z,0.30
2023-04-30T07:39:11.902Z,0.20
2023-04-30T07:41:40.533Z,0.33
2023-04-30T07:44:11.769Z,0.40
2023-04-30T07:46:40.379Z,0.20
2023-04-30T07:49:09.105Z,0.30
2023-04-30T07:51:37.725Z,0.20
2023-04-30T07:54:06.252Z,0.40
2023-04-30T07:56:34.818Z,0.20
2023-04-30T07:59:03.486Z,0.37
2023-04-30T08:01:33.452Z,0.30
2023-04-30T08:04:02.205Z,0.30
2023-04-30T08:06:31.114Z,0.33
2023-04-30T08:08:59.585Z,0.40
2023-04-30T08:11:28.584Z,0.20
2023-04-30T08:13:57.103Z,0.40
2023-04-30T08:16:25.570Z,0.30
2023-04-30T08:18:55.958Z,0.30
2023-04-30T08:21:24.658Z,0.30
2023-04-30T08:23:53.124Z,0.40
2023-04-30T08:26:22.236Z,0.47
2023-04-30T08:28:50.881Z,0.37
2023-04-30T08:31:19.521Z,0.30
2023-04-30T08:33:48.137Z,0.30
2023-04-30T08:36:18.091Z,0.50
2023-04-30T08:38:46.624Z,0.20
2023-04-30T08:41:15.921Z,0.23
2023-04-30T08:43:45.507Z,0.40
2023-04-30T08:46:14.543Z,0.30
2023-04-30T08:48:43.181Z,0.30
2023-04-30T08:51:11.740Z,0.30
2023-04-30T08:53:42.335Z,0.30
2023-04-30T08:56:12.338Z,0.30
2023-04-30T08:58:41.566Z,0.30
2023-04-30T09:01:11.183Z,0.30
2023-04-30T09:03:40.027Z,0.50
2023-04-30T09:06:08.819Z,0.30
2023-04-30T09:08:45.279Z,0.40
2023-04-30T09:11:23.876Z,0.50
2023-04-30T09:13:53.902Z,0.27
2023-04-30T09:16:23.040Z,0.40
2023-04-30T09:18:51.900Z,0.40
2023-04-30T09:21:32.728Z,0.30
2023-04-30T09:24:03.391Z,0.13
2023-04-30T09:26:33.833Z,0.30
2023-04-30T09:29:07.944Z,0.30
2023-04-30T09:31:37.225Z,0.37
2023-04-30T09:34:06.155Z,0.20
2023-04-30T09:36:36.859Z,0.30
2023-04-30T09:39:14.877Z,0.37
2023-04-30T09:41:44.671Z,0.20
2023-04-30T09:44:28.512Z,0.30
2023-04-30T09:46:58.729Z,0.30
2023-04-30T09:49:27.819Z,0.30
2023-04-30T09:51:57.202Z,0.37
2023-04-30T09:54:28.944Z,0.40
2023-04-30T09:56:58.329Z,0.20
2023-04-30T09:59:30.815Z,0.30
2023-04-30T10:02:02.294Z,0.20
2023-04-30T10:04:33.393Z,0.30
2023-04-30T10:07:04.064Z,0.30
2023-04-30T10:09:37.804Z,0.20
2023-04-30T10:12:08.204Z,0.40
2023-04-30T10:14:37.191Z,0.20
2023-04-30T10:17:10.341Z,0.20
2023-04-30T10:19:41.688Z,0.40
2023-04-30T10:22:10.596Z,0.20
2023-04-30T10:24:40.603Z,0.20
2023-04-30T10:27:09.418Z,0.20
2023-04-30T10:29:37.957Z,0.40
2023-04-30T10:32:07.303Z,0.30
2023-04-30T10:34:40.844Z,0.37
2023-04-30T10:37:11.553Z,0.20
2023-04-30T10:39:41.512Z,0.30
2023-04-30T10:42:12.026Z,0.30
2023-04-30T10:44:41.336Z,0.20
2023-04-30T10:47:10.249Z,0.20
2023-04-30T10:49:38.745Z,0.33
2023-04-30T10:52:07.446Z,0.30
2023-04-30T10:54:37.185Z,0.20
2023-04-30T10:57:14.611Z,0.30
2023-04-30T10:59:46.870Z,0.30
2023-04-30T11:02:18.397Z,0.20
2023-04-30T11:05:05.418Z,0.20
2023-04-30T11:07:34.163Z,0.30
2023-04-30T11:10:03.233Z,0.30
2023-04-30T11:12:33.091Z,0.30
2023-04-30T11:15:02.763Z,0.20
2023-04-30T11:17:31.249Z,0.30
2023-04-30T11:20:01.854Z,0.20
2023-04-30T11:22:36.095Z,0.30
2023-04-30T11:25:06.100Z,0.20
2023-04-30T11:27:37.065Z,0.30
2023-04-30T11:30:06.657Z,0.30
2023-04-30T11:32:36.076Z,0.40
2023-04-30T11:35:05.325Z,0.20
2023-04-30T11:37:34.517Z,0.20
2023-04-30T11:40:04.019Z,0.20
2023-04-30T11:42:34.741Z,0.20
2023-04-30T11:45:09.442Z,0.20
2023-04-30T11:47:41.763Z,0.37
2023-04-30T11:50:10.607Z,0.30
2023-04-30T11:52:39.149Z,0.20
2023-04-30T11:55:09.314Z,0.30
2023-04-30T11:57:41.959Z,0.20
2023-04-30T12:00:14.404Z,0.33
2023-04-30T12:02:43.532Z,0.20
2023-04-30T12:05:17.337Z,0.20
2023-04-30T12:07:49.501Z,0.20
2023-04-30T12:10:18.508Z,0.30
2023-04-30T12:12:47.020Z,0.20
2023-04-30T12:15:18.235Z,0.20
2023-04-30T12:17:47.264Z,0.30
2023-04-30T12:20:16.318Z,0.40
2023-04-30T12:22:45.603Z,0.10
2023-04-30T12:25:15.118Z,0.20
2023-04-30T12:27:44.027Z,0.30
2023-04-30T12:30:13.287Z,0.40
2023-04-30T12:32:44.748Z,0.30
2023-04-30T12:35:16.659Z,0.30
2023-04-30T12:37:45.994Z,0.30
2023-04-30T12:40:14.960Z,0.20
2023-04-30T12:42:44.816Z,0.30
2023-04-30T12:45:13.786Z,0.40
2023-04-30T12:47:44.562Z,0.40
2023-04-30T12:50:13.525Z,0.30
2023-04-30T12:52:44.425Z,0.30
2023-04-30T12:55:18.247Z,0.50
2023-04-30T12:58:01.571Z,0.40
2023-04-30T13:00:30.154Z,0.43
2023-04-30T13:03:00.216Z,0.33
2023-04-30T13:05:28.794Z,0.30
2023-04-30T13:08:03.522Z,0.27
2023-04-30T13:10:32.295Z,0.40
2023-04-30T13:13:00.726Z,0.43
2023-04-30T13:15:29.255Z,0.30
2023-04-30T13:17:58.132Z,0.30
2023-04-30T13:20:28.074Z,0.40
2023-04-30T13:22:56.544Z,0.40
2023-04-30T13:25:25.284Z,0.30
2023-04-30T13:27:53.751Z,0.20
2023-04-30T13:30:22.207Z,1.23
2023-04-30T13:32:52.331Z,0.40
2023-04-30T13:35:20.879Z,0.50
2023-04-30T13:37:52.592Z,0.30
2023-04-30T13:40:21.700Z,0.43
2023-04-30T13:42:50.426Z,0.50
2023-04-30T13:45:19.256Z,0.40
2023-04-30T13:47:48.012Z,0.30
2023-04-30T13:50:16.516Z,0.40
2023-04-30T13:52:45.169Z,0.30
2023-04-30T13:55:15.315Z,0.50
2023-04-30T13:57:43.810Z,0.40
2023-04-30T14:00:12.944Z,0.33
2023-04-30T14:02:45.409Z,0.33
2023-04-30T14:05:14.130Z,0.60
2023-04-30T14:07:43.895Z,0.47
2023-04-30T14:10:12.881Z,0.30
2023-04-30T14:12:42.780Z,0.43
2023-04-30T14:15:11.754Z,0.43
2023-04-30T14:17:40.281Z,0.43
2023-04-30T14:20:09.303Z,0.40
2023-04-30T14:22:38.818Z,0.40
2023-04-30T14:25:07.737Z,0.50
2023-04-30T14:27:36.282Z,0.40
2023-04-30T14:30:06.690Z,0.43
2023-04-30T14:32:35.191Z,0.57
2023-04-30T14:35:04.954Z,0.47
2023-04-30T14:37:33.708Z,0.40
2023-04-30T14:40:02.968Z,0.40
2023-04-30T14:42:31.585Z,0.40
2023-04-30T14:45:00.259Z,0.40
2023-04-30T14:47:30.283Z,0.67
2023-04-30T14:49:58.949Z,0.40
2023-04-30T14:52:27.880Z,0.63
2023-04-30T14:54:56.779Z,0.70
2023-04-30T14:57:25.300Z,0.60
2023-04-30T14:59:57.728Z,0.60
2023-04-30T15:02:26.409Z,0.40
2023-04-30T15:04:56.629Z,0.80
2023-04-30T15:07:25.198Z,0.60
2023-04-30T15:09:55.396Z,0.50
2023-04-30T15:12:24.259Z,0.70
2023-04-30T15:14:52.872Z,0.70
2023-04-30T15:17:21.455Z,0.80
2023-04-30T15:19:50.051Z,0.50
2023-04-30T15:22:19.992Z,0.90
2023-04-30T15:24:48.442Z,0.60
2023-04-30T15:27:17.008Z,0.63
2023-04-30T15:29:46.670Z,0.60
2023-04-30T15:32:15.139Z,0.60
2023-04-30T15:34:43.659Z,0.63
2023-04-30T15:37:12.173Z,0.70
2023-04-30T15:39:42.020Z,0.57
2023-04-30T15:42:10.587Z,0.80
2023-04-30T15:44:39.128Z,0.60
2023-04-30T15:47:07.695Z,0.70
2023-04-30T15:49:36.308Z,0.70
2023-04-30T15:52:04.835Z,1.00
2023-04-30T15:54:33.286Z,1.03
2023-04-30T15:57:04.075Z,1.00
2023-04-30T15:59:32.616Z,0.80
2023-04-30T16:02:01.573Z,0.67
2023-04-30T16:04:30.519Z,0.80
2023-04-30T16:06:59.189Z,0.63
2023-04-30T16:09:27.709Z,1.03
2023-04-30T16:11:57.528Z,0.60
2023-04-30T16:14:27.556Z,0.60
2023-04-30T16:16:56.124Z,0.60
2023-04-30T16:19:24.839Z,0.60
2023-04-30T16:21:53.425Z,1.10
2023-04-30T16:24:21.886Z,0.67
2023-04-30T16:26:50.532Z,0.70
2023-04-30T16:29:19.351Z,0.60
2023-04-30T16:31:49.258Z,0.90
2023-04-30T16:34:17.775Z,0.73
2023-04-30T16:36:46.418Z,0.60
2023-04-30T16:39:17.016Z,0.80
2023-04-30T16:41:45.863Z,0.83
2023-04-30T16:44:14.452Z,0.77
2023-04-30T16:46:42.925Z,0.67
2023-04-30T16:49:12.872Z,0.60
2023-04-30T16:51:41.491Z,0.70
2023-04-30T16:54:09.976Z,0.80
2023-04-30T16:56:38.583Z,0.70
2023-04-30T16:59:07.135Z,0.50
2023-04-30T17:01:36.076Z,0.80
2023-04-30T17:04:04.684Z,0.70
2023-04-30T17:06:35.525Z,0.80
2023-04-30T17:09:04.345Z,0.87
2023-04-30T17:11:32.929Z,0.70
2023-04-30T17:14:01.589Z,0.50
2023-04-30T17:16:30.151Z,0.90
2023-04-30T17:18:58.751Z,0.80
2023-04-30T17:21:28.630Z,0.70
2023-04-30T17:23:58.646Z,1.10
2023-04-30T17:26:27.230Z,0.70
2023-04-30T17:28:55.754Z,0.60
2023-04-30T17:31:24.428Z,0.77
2023-04-30T17:33:52.992Z,0.80
2023-04-30T17:36:21.568Z,0.60
2023-04-30T17:38:50.083Z,0.60
2023-04-30T17:41:21.085Z,0.90
2023-04-30T17:43:49.652Z,0.80
2023-04-30T17:46:18.331Z,0.60
2023-04-30T17:48:46.820Z,0.90
2023-04-30T17:51:15.399Z,0.80
2023-04-30T17:53:43.969Z,0.80
2023-04-30T17:56:14.082Z,1.00
2023-04-30T17:58:45.932Z,0.90
2023-04-30T18:01:14.707Z,0.80
2023-04-30T18:03:43.785Z,0.77
2023-04-30T18:06:12.472Z,0.70
2023-04-30T18:08:41.059Z,0.80
2023-04-30T18:11:09.680Z,0.77
2023-04-30T18:13:38.511Z,1.03
2023-04-30T18:16:09.117Z,0.87
2023-04-30T18:18:37.771Z,0.80
2023-04-30T18:21:06.435Z,0.77
2023-04-30T18:23:35.002Z,1.00
2023-04-30T18:26:04.088Z,1.10
2023-04-30T18:28:32.669Z,1.40
2023-04-30T18:31:01.134Z,0.97
2023-04-30T18:33:31.163Z,0.80
2023-04-30T18:36:02.986Z,1.10
2023-04-30T18:38:33.421Z,0.90
2023-04-30T18:41:02.206Z,0.90
2023-04-30T18:43:30.928Z,0.90
2023-04-30T18:45:59.535Z,1.10
2023-04-30T18:48:28.188Z,1.10
2023-04-30T18:50:58.411Z,0.90
2023-04-30T18:53:26.937Z,0.93
2023-04-30T18:55:55.493Z,1.10
2023-04-30T18:58:24.222Z,0.90
2023-04-30T19:00:52.995Z,1.00
2023-04-30T19:03:21.707Z,1.07
2023-04-30T19:05:50.410Z,1.20
2023-04-30T19:08:20.291Z,1.20
2023-04-30T19:10:50.905Z,1.20
2023-04-30T19:13:19.851Z,1.10
2023-04-30T19:15:49.093Z,1.40
2023-04-30T19:18:18.028Z,0.70
2023-04-30T19:20:57.205Z,0.90
2023-04-30T19:23:30.715Z,1.00
2023-04-30T19:25:59.729Z,1.10
2023-04-30T19:28:28.243Z,1.20
2023-04-30T19:30:57.556Z,1.40
2023-04-30T19:33:26.992Z,0.90
2023-04-30T19:35:57.693Z,1.43
2023-04-30T19:38:27.611Z,1.20
2023-04-30T19:40:56.444Z,1.60
2023-04-30T19:43:25.411Z,1.33
2023-04-30T19:45:54.537Z,1.80
2023-04-30T19:48:23.542Z,1.60
2023-04-30T19:50:53.749Z,1.20
2023-04-30T19:53:25.428Z,1.70
2023-04-30T19:55:55.635Z,1.30
2023-04-30T19:58:24.097Z,1.13
2023-04-30T20:00:52.557Z,1.10
2023-04-30T20:03:21.763Z,1.10
2023-04-30T20:05:50.314Z,1.40
2023-04-30T20:08:18.785Z,1.53
2023-04-30T20:10:48.097Z,1.30
2023-04-30T20:13:18.286Z,1.20
2023-04-30T20:15:46.826Z,1.50
2023-04-30T20:18:15.565Z,1.43
2023-04-30T20:20:44.836Z,1.47
2023-04-30T20:23:14.422Z,1.20
2023-04-30T20:25:45.452Z,1.20
2023-04-30T20:28:14.480Z,1.40
2023-04-30T20:30:44.553Z,1.30
2023-04-30T20:33:13.325Z,1.50
2023-04-30T20:35:41.921Z,1.10
2023-04-30T20:38:10.835Z,1.10
2023-04-30T20:40:40.542Z,1.17
2023-04-30T20:43:10.370Z,1.10
2023-04-30T20:45:39.080Z,1.40
2023-04-30T20:48:09.377Z,1.00
2023-04-30T20:50:37.874Z,1.60
2023-04-30T20:53:07.965Z,1.03
2023-04-30T20:55:37.529Z,1.17
2023-04-30T20:58:05.982Z,1.20
2023-04-30T21:00:34.614Z,1.37
2023-04-30T21:03:03.334Z,1.00
2023-04-30T21:05:33.360Z,1.10
2023-04-30T21:08:02.442Z,1.20
2023-04-30T21:10:36.458Z,1.37
2023-04-30T21:13:08.892Z,1.20
2023-04-30T21:15:39.226Z,1.00
2023-04-30T21:18:08.722Z,1.37
2023-04-30T21:20:38.787Z,1.20
2023-04-30T21:23:07.385Z,1.30
2023-04-30T21:25:38.312Z,1.47
2023-04-30T21:28:06.770Z,1.20
2023-04-30T21:30:35.361Z,1.50
2023-04-30T21:33:04.765Z,1.40
2023-04-30T21:35:33.970Z,1.30
2023-04-30T21:38:04.100Z,1.17
2023-04-30T21:40:33.677Z,1.17
2023-04-30T21:43:02.769Z,1.20
2023-04-30T21:45:32.019Z,1.10
2023-04-30T21:48:00.882Z,1.30
2023-04-30T21:50:29.449Z,1.37
2023-04-30T21:52:58.742Z,1.20
2023-04-30T21:55:28.717Z,1.20
2023-04-30T21:57:57.176Z,1.27
2023-04-30T22:00:25.921Z,1.17
2023-04-30T22:02:54.507Z,1.10
2023-04-30T22:05:22.985Z,1.10
2023-04-30T22:07:51.548Z,1.00
2023-04-30T22:10:20.192Z,1.17
2023-04-30T22:12:50.053Z,0.93
2023-04-30T22:15:18.583Z,1.00
2023-04-30T22:17:47.711Z,1.20
2023-04-30T22:20:16.296Z,1.10
2023-04-30T22:22:44.883Z,1.30
2023-04-30T22:25:13.493Z,1.20
2023-04-30T22:27:41.935Z,1.20
2023-04-30T22:30:12.183Z,1.10
2023-04-30T22:32:40.822Z,1.20
2023-04-30T22:35:11.486Z,1.40
2023-04-30T22:37:40.137Z,1.50
2023-04-30T22:40:09.094Z,1.20
2023-04-30T22:42:37.554Z,1.10
2023-04-30T22:45:06.512Z,1.20
2023-04-30T22:47:36.515Z,1.40
2023-04-30T22:50:06.575Z,1.20
2023-04-30T22:52:35.173Z,1.10
2023-04-30T22:55:05.558Z,1.20
2023-04-30T22:57:34.212Z,1.60
2023-04-30T23:00:02.807Z,1.37
2023-04-30T23:02:31.267Z,1.37
2023-04-30T23:05:01.326Z,1.40
2023-04-30T23:07:29.901Z,1.40
2023-04-30T23:09:58.494Z,1.43
2023-04-30T23:12:27.676Z,1.50
2023-04-30T23:14:56.432Z,1.27
2023-04-30T23:17:24.983Z,1.50
2023-04-30T23:19:53.643Z,1.33
2023-04-30T23:22:24.065Z,1.23
2023-04-30T23:24:52.523Z,1.20
2023-04-30T23:27:20.986Z,1.50
2023-04-30T23:29:49.645Z,1.30
2023-04-30T23:32:18.458Z,1.33
2023-04-30T23:34:47.686Z,1.10
2023-04-30T23:37:16.744Z,1.40
2023-04-30T23:39:46.603Z,1.20
2023-04-30T23:42:15.142Z,1.57
2023-04-30T23:44:43.788Z,1.23
2023-04-30T23:47:12.526Z,1.30
2023-04-30T23:49:40.993Z,1.20
2023-04-30T23:52:09.852Z,1.50
2023-04-30T23:54:38.298Z,1.33
2023-04-30T23:57:08.132Z,1.40
2023-04-30T23:59:36.927Z,1.40
